sensor_id;sensor_type;location;lat;lon;timestamp;P1;durP1;ratioP1;P2;durP2;ratioP2
1106;SDS011;540;49.448;8.612;2023-02-28T00:01:11;2.70;;;1.60;;
1106;SDS011;540;49.448;8.612;2023-02-28T00:03:39;3.22;;;1.80;;
1106;SDS011;540;49.448;8.612;2023-02-28T00:06:07;4.00;;;1.40;;
1106;SDS011;540;49.448;8.612;2023-02-28T00:08:36;3.67;;;1.85;;
1106;SDS011;540;49.448;8.612;2023-02-28T00:11:04;3.10;;;1.50;;
1106;SDS011;540;49.448;8.612;2023-02-28T00:13:36;2.97;;;1.60;;
1106;SDS011;540;49.448;8.612;2023-02-28T00:16:06;2.03;;;1.50;;
1106;SDS011;540;49.448;8.612;2023-02-28T00:18:35;2.70;;;1.50;;
1106;SDS011;540;49.448;8.612;2023-02-28T00:21:03;2.88;;;1.30;;
1106;SDS011;540;49.448;8.612;2023-02-28T00:23:31;3.50;;;1.58;;
1106;SDS011;540;49.448;8.612;2023-02-28T00:26:00;2.35;;;1.30;;
1106;SDS011;540;49.448;8.612;2023-02-28T00:28:28;2.70;;;1.52;;
1106;SDS011;540;49.448;8.612;2023-02-28T00:30:57;2.47;;;1.60;;
1106;SDS011;540;49.448;8.612;2023-02-28T00:33:26;2.22;;;1.17;;
1106;SDS011;540;49.448;8.612;2023-02-28T00:36:01;3.58;;;1.60;;
1106;SDS011;540;49.448;8.612;2023-02-28T00:38:30;2.22;;;1.55;;
1106;SDS011;540;49.448;8.612;2023-02-28T00:40:58;4.45;;;1.60;;
1106;SDS011;540;49.448;8.612;2023-02-28T00:43:31;2.70;;;1.77;;
1106;SDS011;540;49.448;8.612;2023-02-28T00:46:01;4.43;;;2.30;;
1106;SDS011;540;49.448;8.612;2023-02-28T00:48:29;5.10;;;1.60;;
1106;SDS011;540;49.448;8.612;2023-02-28T00:50:58;2.78;;;1.60;;
1106;SDS011;540;49.448;8.612;2023-02-28T00:53:25;5.03;;;2.63;;
1106;SDS011;540;49.448;8.612;2023-02-28T00:55:53;3.20;;;1.55;;
1106;SDS011;540;49.448;8.612;2023-02-28T00:58:21;5.18;;;1.55;;
1106;SDS011;540;49.448;8.612;2023-02-28T01:00:49;3.33;;;1.80;;
1106;SDS011;540;49.448;8.612;2023-02-28T01:03:20;4.40;;;1.60;;
1106;SDS011;540;49.448;8.612;2023-02-28T01:05:48;5.80;;;1.80;;
1106;SDS011;540;49.448;8.612;2023-02-28T01:08:16;3.60;;;1.77;;
1106;SDS011;540;49.448;8.612;2023-02-28T01:10:44;2.92;;;1.63;;
1106;SDS011;540;49.448;8.612;2023-02-28T01:13:12;2.83;;;1.70;;
1106;SDS011;540;49.448;8.612;2023-02-28T01:15:41;2.72;;;1.33;;
1106;SDS011;540;49.448;8.612;2023-02-28T01:18:12;5.95;;;1.83;;
1106;SDS011;540;49.448;8.612;2023-02-28T01:20:41;3.80;;;2.00;;
1106;SDS011;540;49.448;8.612;2023-02-28T01:23:09;3.90;;;1.95;;
1106;SDS011;540;49.448;8.612;2023-02-28T01:25:37;3.33;;;1.75;;
1106;SDS011;540;49.448;8.612;2023-02-28T01:28:05;5.38;;;2.03;;
1106;SDS011;540;49.448;8.612;2023-02-28T01:30:32;2.53;;;1.75;;
1106;SDS011;540;49.448;8.612;2023-02-28T01:33:00;2.42;;;1.92;;
1106;SDS011;540;49.448;8.612;2023-02-28T01:35:31;3.65;;;1.73;;
1106;SDS011;540;49.448;8.612;2023-02-28T01:38:01;4.15;;;1.98;;
1106;SDS011;540;49.448;8.612;2023-02-28T01:43:17;3.22;;;1.80;;
1106;SDS011;540;49.448;8.612;2023-02-28T01:45:48;2.97;;;1.90;;
1106;SDS011;540;49.448;8.612;2023-02-28T01:48:16;4.18;;;2.00;;
1106;SDS011;540;49.448;8.612;2023-02-28T01:50:46;5.60;;;2.40;;
1106;SDS011;540;49.448;8.612;2023-02-28T01:53:17;3.33;;;1.70;;
1106;SDS011;540;49.448;8.612;2023-02-28T01:55:49;3.58;;;2.13;;
1106;SDS011;540;49.448;8.612;2023-02-28T01:58:19;2.97;;;1.73;;
1106;SDS011;540;49.448;8.612;2023-02-28T02:00:47;3.72;;;2.03;;
1106;SDS011;540;49.448;8.612;2023-02-28T02:03:16;11.00;;;2.55;;
1106;SDS011;540;49.448;8.612;2023-02-28T02:05:47;4.70;;;2.33;;
1106;SDS011;540;49.448;8.612;2023-02-28T02:08:15;4.43;;;2.35;;
1106;SDS011;540;49.448;8.612;2023-02-28T02:10:47;4.18;;;2.20;;
1106;SDS011;540;49.448;8.612;2023-02-28T02:13:24;5.10;;;2.53;;
1106;SDS011;540;49.448;8.612;2023-02-28T02:16:16;5.47;;;2.17;;
1106;SDS011;540;49.448;8.612;2023-02-28T02:18:57;3.63;;;2.22;;
1106;SDS011;540;49.448;8.612;2023-02-28T02:21:39;5.38;;;3.10;;
1106;SDS011;540;49.448;8.612;2023-02-28T02:24:35;4.75;;;2.30;;
1106;SDS011;540;49.448;8.612;2023-02-28T02:27:28;4.18;;;2.45;;
1106;SDS011;540;49.448;8.612;2023-02-28T02:30:21;3.60;;;2.38;;
1106;SDS011;540;49.448;8.612;2023-02-28T02:33:18;7.35;;;2.30;;
1106;SDS011;540;49.448;8.612;2023-02-28T02:36:17;5.47;;;2.42;;
1106;SDS011;540;49.448;8.612;2023-02-28T02:38:50;8.47;;;2.30;;
1106;SDS011;540;49.448;8.612;2023-02-28T02:41:23;4.65;;;2.78;;
1106;SDS011;540;49.448;8.612;2023-02-28T02:43:56;6.63;;;2.63;;
1106;SDS011;540;49.448;8.612;2023-02-28T02:46:30;3.72;;;2.28;;
1106;SDS011;540;49.448;8.612;2023-02-28T02:49:02;6.40;;;2.90;;
1106;SDS011;540;49.448;8.612;2023-02-28T02:51:34;5.10;;;2.50;;
1106;SDS011;540;49.448;8.612;2023-02-28T02:54:05;4.60;;;2.70;;
1106;SDS011;540;49.448;8.612;2023-02-28T02:56:36;6.38;;;2.63;;
1106;SDS011;540;49.448;8.612;2023-02-28T02:59:07;5.00;;;2.47;;
1106;SDS011;540;49.448;8.612;2023-02-28T03:01:38;4.35;;;2.53;;
1106;SDS011;540;49.448;8.612;2023-02-28T03:04:09;4.00;;;2.33;;
1106;SDS011;540;49.448;8.612;2023-02-28T03:06:41;5.55;;;2.85;;
1106;SDS011;540;49.448;8.612;2023-02-28T03:09:09;5.80;;;2.75;;
1106;SDS011;540;49.448;8.612;2023-02-28T03:11:37;5.95;;;2.55;;
1106;SDS011;540;49.448;8.612;2023-02-28T03:14:20;4.55;;;2.33;;
1106;SDS011;540;49.448;8.612;2023-02-28T03:17:06;5.53;;;2.90;;
1106;SDS011;540;49.448;8.612;2023-02-28T03:19:55;6.07;;;2.75;;
1106;SDS011;540;49.448;8.612;2023-02-28T03:22:42;5.25;;;3.05;;
1106;SDS011;540;49.448;8.612;2023-02-28T03:25:20;5.40;;;3.28;;
1106;SDS011;540;49.448;8.612;2023-02-28T03:27:59;4.50;;;2.58;;
1106;SDS011;540;49.448;8.612;2023-02-28T03:30:33;7.90;;;3.45;;
1106;SDS011;540;49.448;8.612;2023-02-28T03:33:06;5.90;;;2.95;;
1106;SDS011;540;49.448;8.612;2023-02-28T03:35:37;5.90;;;3.13;;
1106;SDS011;540;49.448;8.612;2023-02-28T03:38:11;4.28;;;2.55;;
1106;SDS011;540;49.448;8.612;2023-02-28T03:40:46;6.22;;;3.47;;
1106;SDS011;540;49.448;8.612;2023-02-28T03:43:18;5.03;;;3.00;;
1106;SDS011;540;49.448;8.612;2023-02-28T03:45:52;6.32;;;3.15;;
1106;SDS011;540;49.448;8.612;2023-02-28T03:48:23;7.55;;;3.63;;
1106;SDS011;540;49.448;8.612;2023-02-28T03:50:59;5.10;;;2.95;;
1106;SDS011;540;49.448;8.612;2023-02-28T03:53:30;7.63;;;3.67;;
1106;SDS011;540;49.448;8.612;2023-02-28T03:56:03;6.18;;;3.33;;
1106;SDS011;540;49.448;8.612;2023-02-28T03:58:37;5.88;;;3.63;;
1106;SDS011;540;49.448;8.612;2023-02-28T04:01:09;6.78;;;3.45;;
1106;SDS011;540;49.448;8.612;2023-02-28T04:03:39;8.27;;;3.75;;
1106;SDS011;540;49.448;8.612;2023-02-28T04:06:08;6.60;;;3.40;;
1106;SDS011;540;49.448;8.612;2023-02-28T04:08:44;5.40;;;2.67;;
1106;SDS011;540;49.448;8.612;2023-02-28T04:11:15;6.13;;;3.00;;
1106;SDS011;540;49.448;8.612;2023-02-28T04:13:47;5.87;;;3.03;;
1106;SDS011;540;49.448;8.612;2023-02-28T04:16:15;8.20;;;3.35;;
1106;SDS011;540;49.448;8.612;2023-02-28T04:18:59;7.40;;;3.55;;
1106;SDS011;540;49.448;8.612;2023-02-28T04:21:29;7.95;;;3.50;;
1106;SDS011;540;49.448;8.612;2023-02-28T04:23:58;6.57;;;3.55;;
1106;SDS011;540;49.448;8.612;2023-02-28T04:26:29;7.05;;;3.35;;
1106;SDS011;540;49.448;8.612;2023-02-28T04:28:57;8.07;;;3.70;;
1106;SDS011;540;49.448;8.612;2023-02-28T04:31:26;7.28;;;3.25;;
1106;SDS011;540;49.448;8.612;2023-02-28T04:33:54;7.00;;;3.97;;
1106;SDS011;540;49.448;8.612;2023-02-28T04:36:22;6.05;;;3.35;;
1106;SDS011;540;49.448;8.612;2023-02-28T04:38:50;6.88;;;3.40;;
1106;SDS011;540;49.448;8.612;2023-02-28T04:41:19;7.25;;;3.72;;
1106;SDS011;540;49.448;8.612;2023-02-28T04:43:48;4.82;;;2.85;;
1106;SDS011;540;49.448;8.612;2023-02-28T04:46:17;6.05;;;3.38;;
1106;SDS011;540;49.448;8.612;2023-02-28T04:48:46;6.13;;;3.58;;
1106;SDS011;540;49.448;8.612;2023-02-28T04:51:15;11.82;;;3.90;;
1106;SDS011;540;49.448;8.612;2023-02-28T04:53:44;12.73;;;4.05;;
1106;SDS011;540;49.448;8.612;2023-02-28T04:56:13;6.07;;;3.38;;
1106;SDS011;540;49.448;8.612;2023-02-28T04:58:43;5.80;;;2.83;;
1106;SDS011;540;49.448;8.612;2023-02-28T05:01:16;7.55;;;3.60;;
1106;SDS011;540;49.448;8.612;2023-02-28T05:03:45;5.00;;;2.72;;
1106;SDS011;540;49.448;8.612;2023-02-28T05:06:14;7.03;;;3.63;;
1106;SDS011;540;49.448;8.612;2023-02-28T05:08:42;5.80;;;3.05;;
1106;SDS011;540;49.448;8.612;2023-02-28T05:11:13;7.13;;;3.08;;
1106;SDS011;540;49.448;8.612;2023-02-28T05:13:45;7.43;;;3.00;;
1106;SDS011;540;49.448;8.612;2023-02-28T05:16:13;5.07;;;3.03;;
1106;SDS011;540;49.448;8.612;2023-02-28T05:18:41;5.50;;;2.90;;
1106;SDS011;540;49.448;8.612;2023-02-28T05:21:20;6.95;;;3.42;;
1106;SDS011;540;49.448;8.612;2023-02-28T05:23:55;7.28;;;3.28;;
1106;SDS011;540;49.448;8.612;2023-02-28T05:26:24;7.25;;;3.03;;
1106;SDS011;540;49.448;8.612;2023-02-28T05:28:54;6.90;;;3.22;;
1106;SDS011;540;49.448;8.612;2023-02-28T05:31:22;7.63;;;3.55;;
1106;SDS011;540;49.448;8.612;2023-02-28T05:33:50;5.22;;;3.20;;
1106;SDS011;540;49.448;8.612;2023-02-28T05:36:18;8.25;;;3.33;;
1106;SDS011;540;49.448;8.612;2023-02-28T05:38:46;7.90;;;3.58;;
1106;SDS011;540;49.448;8.612;2023-02-28T05:41:15;5.50;;;3.65;;
1106;SDS011;540;49.448;8.612;2023-02-28T05:43:45;6.65;;;3.45;;
1106;SDS011;540;49.448;8.612;2023-02-28T05:46:15;6.65;;;3.28;;
1106;SDS011;540;49.448;8.612;2023-02-28T05:48:45;9.27;;;4.57;;
1106;SDS011;540;49.448;8.612;2023-02-28T05:51:14;7.88;;;3.65;;
1106;SDS011;540;49.448;8.612;2023-02-28T05:53:42;7.50;;;3.65;;
1106;SDS011;540;49.448;8.612;2023-02-28T05:56:10;7.00;;;3.50;;
1106;SDS011;540;49.448;8.612;2023-02-28T05:58:38;5.80;;;3.40;;
1106;SDS011;540;49.448;8.612;2023-02-28T06:01:33;5.50;;;3.10;;
1106;SDS011;540;49.448;8.612;2023-02-28T06:04:03;6.25;;;3.35;;
1106;SDS011;540;49.448;8.612;2023-02-28T06:06:32;7.68;;;3.00;;
1106;SDS011;540;49.448;8.612;2023-02-28T06:09:11;7.80;;;3.90;;
1106;SDS011;540;49.448;8.612;2023-02-28T06:11:39;6.85;;;3.33;;
1106;SDS011;540;49.448;8.612;2023-02-28T06:14:09;7.88;;;3.20;;
1106;SDS011;540;49.448;8.612;2023-02-28T06:16:43;8.25;;;3.30;;
1106;SDS011;540;49.448;8.612;2023-02-28T06:19:11;5.78;;;3.08;;
1106;SDS011;540;49.448;8.612;2023-02-28T06:21:39;4.82;;;3.00;;
1106;SDS011;540;49.448;8.612;2023-02-28T06:24:07;5.78;;;3.10;;
1106;SDS011;540;49.448;8.612;2023-02-28T06:26:35;9.63;;;4.35;;
1106;SDS011;540;49.448;8.612;2023-02-28T06:29:03;5.55;;;3.42;;
1106;SDS011;540;49.448;8.612;2023-02-28T06:31:31;7.82;;;3.55;;
1106;SDS011;540;49.448;8.612;2023-02-28T06:34:01;5.85;;;2.88;;
1106;SDS011;540;49.448;8.612;2023-02-28T06:36:28;6.10;;;3.55;;
1106;SDS011;540;49.448;8.612;2023-02-28T06:38:56;8.80;;;3.75;;
1106;SDS011;540;49.448;8.612;2023-02-28T06:41:25;6.15;;;3.30;;
1106;SDS011;540;49.448;8.612;2023-02-28T06:43:54;6.15;;;3.42;;
1106;SDS011;540;49.448;8.612;2023-02-28T06:46:22;10.55;;;3.38;;
1106;SDS011;540;49.448;8.612;2023-02-28T06:48:50;7.45;;;4.00;;
1106;SDS011;540;49.448;8.612;2023-02-28T06:51:19;7.43;;;4.00;;
1106;SDS011;540;49.448;8.612;2023-02-28T06:53:48;7.15;;;3.55;;
1106;SDS011;540;49.448;8.612;2023-02-28T06:56:18;5.80;;;3.33;;
1106;SDS011;540;49.448;8.612;2023-02-28T06:58:47;6.68;;;3.30;;
1106;SDS011;540;49.448;8.612;2023-02-28T07:01:16;9.35;;;4.13;;
1106;SDS011;540;49.448;8.612;2023-02-28T07:03:45;8.38;;;4.65;;
1106;SDS011;540;49.448;8.612;2023-02-28T07:06:12;8.48;;;3.70;;
1106;SDS011;540;49.448;8.612;2023-02-28T07:08:42;8.57;;;3.78;;
1106;SDS011;540;49.448;8.612;2023-02-28T07:11:10;17.45;;;4.57;;
1106;SDS011;540;49.448;8.612;2023-02-28T07:13:37;6.75;;;3.75;;
1106;SDS011;540;49.448;8.612;2023-02-28T07:16:06;7.43;;;3.90;;
1106;SDS011;540;49.448;8.612;2023-02-28T07:18:36;9.23;;;3.70;;
1106;SDS011;540;49.448;8.612;2023-02-28T07:21:05;7.45;;;4.25;;
1106;SDS011;540;49.448;8.612;2023-02-28T07:23:35;8.55;;;4.13;;
1106;SDS011;540;49.448;8.612;2023-02-28T07:26:05;6.38;;;3.45;;
1106;SDS011;540;49.448;8.612;2023-02-28T07:28:33;6.40;;;3.72;;
1106;SDS011;540;49.448;8.612;2023-02-28T07:31:04;10.98;;;3.95;;
1106;SDS011;540;49.448;8.612;2023-02-28T07:33:33;6.78;;;3.92;;
1106;SDS011;540;49.448;8.612;2023-02-28T07:36:01;7.57;;;4.28;;
1106;SDS011;540;49.448;8.612;2023-02-28T07:38:30;7.55;;;4.32;;
1106;SDS011;540;49.448;8.612;2023-02-28T07:40:58;11.15;;;4.78;;
1106;SDS011;540;49.448;8.612;2023-02-28T07:43:27;11.30;;;5.90;;
1106;SDS011;540;49.448;8.612;2023-02-28T07:45:55;10.65;;;6.35;;
1106;SDS011;540;49.448;8.612;2023-02-28T07:48:23;12.45;;;6.18;;
1106;SDS011;540;49.448;8.612;2023-02-28T07:50:53;9.55;;;5.80;;
1106;SDS011;540;49.448;8.612;2023-02-28T07:53:22;12.93;;;6.72;;
1106;SDS011;540;49.448;8.612;2023-02-28T07:55:50;10.05;;;5.18;;
1106;SDS011;540;49.448;8.612;2023-02-28T07:58:21;7.65;;;4.53;;
1106;SDS011;540;49.448;8.612;2023-02-28T08:00:51;21.42;;;11.35;;
1106;SDS011;540;49.448;8.612;2023-02-28T08:03:19;44.03;;;20.02;;
1106;SDS011;540;49.448;8.612;2023-02-28T08:05:48;37.03;;;15.43;;
1106;SDS011;540;49.448;8.612;2023-02-28T08:08:16;23.88;;;11.07;;
1106;SDS011;540;49.448;8.612;2023-02-28T08:10:44;23.27;;;12.63;;
1106;SDS011;540;49.448;8.612;2023-02-28T08:13:12;71.68;;;31.15;;
1106;SDS011;540;49.448;8.612;2023-02-28T08:15:40;60.72;;;28.92;;
1106;SDS011;540;49.448;8.612;2023-02-28T08:18:10;9.63;;;6.35;;
1106;SDS011;540;49.448;8.612;2023-02-28T08:20:37;43.63;;;19.90;;
1106;SDS011;540;49.448;8.612;2023-02-28T08:23:05;18.50;;;12.30;;
1106;SDS011;540;49.448;8.612;2023-02-28T08:25:33;53.28;;;28.52;;
1106;SDS011;540;49.448;8.612;2023-02-28T08:28:01;20.50;;;10.23;;
1106;SDS011;540;49.448;8.612;2023-02-28T08:30:28;11.95;;;6.65;;
1106;SDS011;540;49.448;8.612;2023-02-28T08:32:56;7.32;;;4.70;;
1106;SDS011;540;49.448;8.612;2023-02-28T08:35:25;5.55;;;3.90;;
1106;SDS011;540;49.448;8.612;2023-02-28T08:37:53;9.23;;;6.10;;
1106;SDS011;540;49.448;8.612;2023-02-28T08:40:21;7.05;;;5.00;;
1106;SDS011;540;49.448;8.612;2023-02-28T08:42:49;8.23;;;5.60;;
1106;SDS011;540;49.448;8.612;2023-02-28T08:45:17;6.03;;;3.78;;
1106;SDS011;540;49.448;8.612;2023-02-28T08:47:44;5.57;;;3.72;;
1106;SDS011;540;49.448;8.612;2023-02-28T08:50:12;7.22;;;4.05;;
1106;SDS011;540;49.448;8.612;2023-02-28T08:52:43;8.60;;;5.05;;
1106;SDS011;540;49.448;8.612;2023-02-28T08:55:11;5.90;;;3.95;;
1106;SDS011;540;49.448;8.612;2023-02-28T08:57:38;7.15;;;5.07;;
1106;SDS011;540;49.448;8.612;2023-02-28T09:00:07;5.78;;;4.22;;
1106;SDS011;540;49.448;8.612;2023-02-28T09:02:40;5.30;;;3.85;;
1106;SDS011;540;49.448;8.612;2023-02-28T09:05:10;8.15;;;4.10;;
1106;SDS011;540;49.448;8.612;2023-02-28T09:07:40;5.85;;;3.70;;
1106;SDS011;540;49.448;8.612;2023-02-28T09:10:12;5.88;;;3.80;;
1106;SDS011;540;49.448;8.612;2023-02-28T09:12:41;7.63;;;4.70;;
1106;SDS011;540;49.448;8.612;2023-02-28T09:15:13;5.63;;;4.10;;
1106;SDS011;540;49.448;8.612;2023-02-28T09:17:43;6.78;;;4.10;;
1106;SDS011;540;49.448;8.612;2023-02-28T09:20:14;5.30;;;4.13;;
1106;SDS011;540;49.448;8.612;2023-02-28T09:22:45;5.10;;;4.00;;
1106;SDS011;540;49.448;8.612;2023-02-28T09:25:15;6.53;;;4.63;;
1106;SDS011;540;49.448;8.612;2023-02-28T09:27:46;7.32;;;4.15;;
1106;SDS011;540;49.448;8.612;2023-02-28T09:30:16;7.50;;;4.35;;
1106;SDS011;540;49.448;8.612;2023-02-28T09:32:46;6.30;;;3.92;;
1106;SDS011;540;49.448;8.612;2023-02-28T09:35:18;6.97;;;3.90;;
1106;SDS011;540;49.448;8.612;2023-02-28T09:37:50;28.48;;;4.57;;
1106;SDS011;540;49.448;8.612;2023-02-28T09:40:21;7.00;;;4.50;;
1106;SDS011;540;49.448;8.612;2023-02-28T09:42:55;5.82;;;4.18;;
1106;SDS011;540;49.448;8.612;2023-02-28T09:45:28;6.60;;;4.30;;
1106;SDS011;540;49.448;8.612;2023-02-28T09:48:01;6.72;;;4.95;;
1106;SDS011;540;49.448;8.612;2023-02-28T09:50:38;5.93;;;5.13;;
1106;SDS011;540;49.448;8.612;2023-02-28T09:53:13;7.97;;;4.40;;
1106;SDS011;540;49.448;8.612;2023-02-28T09:55:50;6.55;;;4.53;;
1106;SDS011;540;49.448;8.612;2023-02-28T09:58:23;6.75;;;4.50;;
1106;SDS011;540;49.448;8.612;2023-02-28T10:00:58;6.78;;;4.07;;
1106;SDS011;540;49.448;8.612;2023-02-28T10:03:32;5.70;;;4.15;;
1106;SDS011;540;49.448;8.612;2023-02-28T10:06:07;7.53;;;4.47;;
1106;SDS011;540;49.448;8.612;2023-02-28T10:08:42;7.63;;;4.13;;
1106;SDS011;540;49.448;8.612;2023-02-28T10:11:19;5.68;;;4.13;;
1106;SDS011;540;49.448;8.612;2023-02-28T10:13:50;6.50;;;4.35;;
1106;SDS011;540;49.448;8.612;2023-02-28T10:16:23;6.40;;;4.80;;
1106;SDS011;540;49.448;8.612;2023-02-28T10:18:57;6.47;;;4.40;;
1106;SDS011;540;49.448;8.612;2023-02-28T10:21:30;8.45;;;5.43;;
1106;SDS011;540;49.448;8.612;2023-02-28T10:24:05;5.85;;;3.92;;
1106;SDS011;540;49.448;8.612;2023-02-28T10:26:43;6.07;;;4.13;;
1106;SDS011;540;49.448;8.612;2023-02-28T10:29:14;6.60;;;4.95;;
1106;SDS011;540;49.448;8.612;2023-02-28T10:31:42;6.70;;;4.10;;
1106;SDS011;540;49.448;8.612;2023-02-28T10:34:10;6.05;;;3.90;;
1106;SDS011;540;49.448;8.612;2023-02-28T10:36:39;7.38;;;4.60;;
1106;SDS011;540;49.448;8.612;2023-02-28T10:42:04;5.90;;;4.10;;
1106;SDS011;540;49.448;8.612;2023-02-28T10:44:47;6.72;;;4.30;;
1106;SDS011;540;49.448;8.612;2023-02-28T10:47:15;6.80;;;4.35;;
1106;SDS011;540;49.448;8.612;2023-02-28T10:49:47;6.40;;;4.38;;
1106;SDS011;540;49.448;8.612;2023-02-28T10:55:15;8.38;;;4.78;;
1106;SDS011;540;49.448;8.612;2023-02-28T10:57:47;5.80;;;4.35;;
1106;SDS011;540;49.448;8.612;2023-02-28T11:00:16;6.75;;;5.10;;
1106;SDS011;540;49.448;8.612;2023-02-28T11:02:45;7.55;;;4.90;;
1106;SDS011;540;49.448;8.612;2023-02-28T11:05:26;5.28;;;4.40;;
1106;SDS011;540;49.448;8.612;2023-02-28T11:07:58;5.38;;;3.95;;
1106;SDS011;540;49.448;8.612;2023-02-28T11:10:32;6.38;;;4.35;;
1106;SDS011;540;49.448;8.612;2023-02-28T11:13:01;8.32;;;4.78;;
1106;SDS011;540;49.448;8.612;2023-02-28T11:15:30;7.80;;;4.80;;
1106;SDS011;540;49.448;8.612;2023-02-28T11:18:00;7.45;;;4.60;;
1106;SDS011;540;49.448;8.612;2023-02-28T11:20:33;5.88;;;4.30;;
1106;SDS011;540;49.448;8.612;2023-02-28T11:23:02;5.40;;;4.55;;
1106;SDS011;540;49.448;8.612;2023-02-28T11:25:33;5.80;;;4.53;;
1106;SDS011;540;49.448;8.612;2023-02-28T11:28:04;5.70;;;4.32;;
1106;SDS011;540;49.448;8.612;2023-02-28T11:30:34;6.80;;;4.63;;
1106;SDS011;540;49.448;8.612;2023-02-28T11:35:51;5.60;;;4.00;;
1106;SDS011;540;49.448;8.612;2023-02-28T11:38:22;7.88;;;5.20;;
1106;SDS011;540;49.448;8.612;2023-02-28T11:40:56;8.25;;;4.88;;
1106;SDS011;540;49.448;8.612;2023-02-28T11:43:38;7.00;;;4.75;;
1106;SDS011;540;49.448;8.612;2023-02-28T11:46:24;7.60;;;4.57;;
1106;SDS011;540;49.448;8.612;2023-02-28T11:49:02;6.43;;;4.60;;
1106;SDS011;540;49.448;8.612;2023-02-28T11:51:46;7.05;;;4.28;;
1106;SDS011;540;49.448;8.612;2023-02-28T11:54:22;6.93;;;5.10;;
1106;SDS011;540;49.448;8.612;2023-02-28T11:56:58;11.55;;;5.40;;
1106;SDS011;540;49.448;8.612;2023-02-28T11:59:49;6.82;;;4.72;;
1106;SDS011;540;49.448;8.612;2023-02-28T12:02:28;6.00;;;4.78;;
1106;SDS011;540;49.448;8.612;2023-02-28T12:05:10;6.95;;;5.35;;
1106;SDS011;540;49.448;8.612;2023-02-28T12:07:48;8.88;;;5.28;;
1106;SDS011;540;49.448;8.612;2023-02-28T12:10:24;9.10;;;6.30;;
1106;SDS011;540;49.448;8.612;2023-02-28T12:13:01;11.32;;;7.07;;
1106;SDS011;540;49.448;8.612;2023-02-28T12:15:44;7.07;;;5.27;;
1106;SDS011;540;49.448;8.612;2023-02-28T12:18:24;6.18;;;4.90;;
1106;SDS011;540;49.448;8.612;2023-02-28T12:21:04;5.85;;;4.55;;
1106;SDS011;540;49.448;8.612;2023-02-28T12:23:48;6.78;;;5.50;;
1106;SDS011;540;49.448;8.612;2023-02-28T12:26:31;7.70;;;4.97;;
1106;SDS011;540;49.448;8.612;2023-02-28T12:29:09;7.65;;;5.65;;
1106;SDS011;540;49.448;8.612;2023-02-28T12:31:44;8.63;;;6.45;;
1106;SDS011;540;49.448;8.612;2023-02-28T12:34:15;7.18;;;4.97;;
1106;SDS011;540;49.448;8.612;2023-02-28T12:36:47;10.68;;;6.43;;
1106;SDS011;540;49.448;8.612;2023-02-28T12:39:19;8.90;;;5.13;;
1106;SDS011;540;49.448;8.612;2023-02-28T12:41:52;7.95;;;4.90;;
1106;SDS011;540;49.448;8.612;2023-02-28T12:44:23;7.40;;;5.25;;
1106;SDS011;540;49.448;8.612;2023-02-28T12:46:58;8.75;;;6.20;;
1106;SDS011;540;49.448;8.612;2023-02-28T12:49:31;9.32;;;6.30;;
1106;SDS011;540;49.448;8.612;2023-02-28T12:52:03;7.90;;;5.40;;
1106;SDS011;540;49.448;8.612;2023-02-28T12:54:35;10.95;;;5.85;;
1106;SDS011;540;49.448;8.612;2023-02-28T12:57:08;7.18;;;4.75;;
1106;SDS011;540;49.448;8.612;2023-02-28T12:59:44;7.18;;;5.35;;
1106;SDS011;540;49.448;8.612;2023-02-28T13:08:37;8.25;;;4.85;;
1106;SDS011;540;49.448;8.612;2023-02-28T13:11:23;5.93;;;4.60;;
1106;SDS011;540;49.448;8.612;2023-02-28T13:13:56;7.85;;;4.88;;
1106;SDS011;540;49.448;8.612;2023-02-28T13:16:27;9.82;;;6.05;;
1106;SDS011;540;49.448;8.612;2023-02-28T13:19:08;8.73;;;5.38;;
1106;SDS011;540;49.448;8.612;2023-02-28T13:21:44;9.98;;;5.93;;
1106;SDS011;540;49.448;8.612;2023-02-28T13:30:00;8.23;;;4.55;;
1106;SDS011;540;49.448;8.612;2023-02-28T13:32:51;9.68;;;6.22;;
1106;SDS011;540;49.448;8.612;2023-02-28T13:35:50;10.73;;;6.95;;
1106;SDS011;540;49.448;8.612;2023-02-28T13:38:35;8.88;;;5.60;;
1106;SDS011;540;49.448;8.612;2023-02-28T13:44:12;6.93;;;5.10;;
1106;SDS011;540;49.448;8.612;2023-02-28T13:49:47;11.38;;;5.88;;
1106;SDS011;540;49.448;8.612;2023-02-28T13:52:17;10.75;;;5.00;;
1106;SDS011;540;49.448;8.612;2023-02-28T13:57:55;9.10;;;5.35;;
1106;SDS011;540;49.448;8.612;2023-02-28T14:00:44;8.48;;;5.57;;
1106;SDS011;540;49.448;8.612;2023-02-28T14:06:31;7.88;;;5.22;;
1106;SDS011;540;49.448;8.612;2023-02-28T14:09:01;8.27;;;5.28;;
1106;SDS011;540;49.448;8.612;2023-02-28T14:11:34;7.35;;;4.82;;
1106;SDS011;540;49.448;8.612;2023-02-28T14:14:04;8.23;;;4.82;;
1106;SDS011;540;49.448;8.612;2023-02-28T14:16:37;9.75;;;5.50;;
1106;SDS011;540;49.448;8.612;2023-02-28T14:19:11;9.30;;;5.18;;
1106;SDS011;540;49.448;8.612;2023-02-28T14:21:49;9.45;;;5.97;;
1106;SDS011;540;49.448;8.612;2023-02-28T14:24:39;9.63;;;5.72;;
1106;SDS011;540;49.448;8.612;2023-02-28T14:27:24;10.20;;;6.55;;
1106;SDS011;540;49.448;8.612;2023-02-28T14:30:09;10.30;;;6.20;;
1106;SDS011;540;49.448;8.612;2023-02-28T14:32:49;9.25;;;5.65;;
1106;SDS011;540;49.448;8.612;2023-02-28T14:35:35;9.02;;;5.70;;
1106;SDS011;540;49.448;8.612;2023-02-28T14:38:14;9.40;;;5.35;;
1106;SDS011;540;49.448;8.612;2023-02-28T14:40:47;9.52;;;5.35;;
1106;SDS011;540;49.448;8.612;2023-02-28T14:43:19;10.35;;;5.38;;
1106;SDS011;540;49.448;8.612;2023-02-28T14:45:50;9.13;;;5.80;;
1106;SDS011;540;49.448;8.612;2023-02-28T14:48:20;9.80;;;5.90;;
1106;SDS011;540;49.448;8.612;2023-02-28T14:50:51;10.65;;;5.53;;
1106;SDS011;540;49.448;8.612;2023-02-28T14:53:23;9.25;;;5.55;;
1106;SDS011;540;49.448;8.612;2023-02-28T14:55:54;8.68;;;5.60;;
1106;SDS011;540;49.448;8.612;2023-02-28T14:58:23;9.88;;;5.85;;
1106;SDS011;540;49.448;8.612;2023-02-28T15:00:53;11.63;;;5.63;;
1106;SDS011;540;49.448;8.612;2023-02-28T15:03:23;11.27;;;6.55;;
1106;SDS011;540;49.448;8.612;2023-02-28T15:05:52;10.68;;;6.00;;
1106;SDS011;540;49.448;8.612;2023-02-28T15:08:22;10.63;;;6.03;;
1106;SDS011;540;49.448;8.612;2023-02-28T15:10:53;8.73;;;5.47;;
1106;SDS011;540;49.448;8.612;2023-02-28T15:13:23;9.48;;;5.63;;
1106;SDS011;540;49.448;8.612;2023-02-28T15:15:57;10.85;;;5.78;;
1106;SDS011;540;49.448;8.612;2023-02-28T15:18:31;11.30;;;5.65;;
1106;SDS011;540;49.448;8.612;2023-02-28T15:21:03;8.73;;;5.40;;
1106;SDS011;540;49.448;8.612;2023-02-28T15:23:35;10.43;;;6.65;;
1106;SDS011;540;49.448;8.612;2023-02-28T15:26:04;14.27;;;5.85;;
1106;SDS011;540;49.448;8.612;2023-02-28T15:28:32;9.45;;;5.25;;
1106;SDS011;540;49.448;8.612;2023-02-28T15:31:01;8.95;;;5.10;;
1106;SDS011;540;49.448;8.612;2023-02-28T15:33:30;10.27;;;5.93;;
1106;SDS011;540;49.448;8.612;2023-02-28T15:36:03;10.25;;;5.43;;
1106;SDS011;540;49.448;8.612;2023-02-28T15:38:40;9.48;;;5.82;;
1106;SDS011;540;49.448;8.612;2023-02-28T15:41:21;10.05;;;5.90;;
1106;SDS011;540;49.448;8.612;2023-02-28T15:46:52;13.10;;;6.90;;
1106;SDS011;540;49.448;8.612;2023-02-28T15:49:23;11.73;;;5.88;;
1106;SDS011;540;49.448;8.612;2023-02-28T15:51:52;12.02;;;6.20;;
1106;SDS011;540;49.448;8.612;2023-02-28T15:54:22;11.48;;;7.22;;
1106;SDS011;540;49.448;8.612;2023-02-28T15:56:55;11.80;;;6.93;;
1106;SDS011;540;49.448;8.612;2023-02-28T15:59:24;17.20;;;8.32;;
1106;SDS011;540;49.448;8.612;2023-02-28T16:02:04;16.20;;;6.53;;
1106;SDS011;540;49.448;8.612;2023-02-28T16:05:00;12.60;;;6.60;;
1106;SDS011;540;49.448;8.612;2023-02-28T16:07:40;12.30;;;6.90;;
1106;SDS011;540;49.448;8.612;2023-02-28T16:10:12;12.07;;;6.45;;
1106;SDS011;540;49.448;8.612;2023-02-28T16:12:41;23.83;;;11.52;;
1106;SDS011;540;49.448;8.612;2023-02-28T16:15:17;19.02;;;8.52;;
1106;SDS011;540;49.448;8.612;2023-02-28T16:17:46;9.38;;;5.60;;
1106;SDS011;540;49.448;8.612;2023-02-28T16:20:14;11.75;;;5.85;;
1106;SDS011;540;49.448;8.612;2023-02-28T16:22:43;13.15;;;6.35;;
1106;SDS011;540;49.448;8.612;2023-02-28T16:25:13;9.43;;;5.57;;
1106;SDS011;540;49.448;8.612;2023-02-28T16:27:43;11.10;;;5.93;;
1106;SDS011;540;49.448;8.612;2023-02-28T16:30:17;9.90;;;5.45;;
1106;SDS011;540;49.448;8.612;2023-02-28T16:32:47;10.68;;;5.43;;
1106;SDS011;540;49.448;8.612;2023-02-28T16:35:16;11.88;;;6.55;;
1106;SDS011;540;49.448;8.612;2023-02-28T16:37:45;13.45;;;5.90;;